createdAt,value
2023-01-19T00:00:18.265Z,99037.56
2023-01-19T00:05:17.405Z,99032.84
2023-01-19T00:10:16.524Z,99044.31
2023-01-19T00:15:15.280Z,99046.56
2023-01-19T00:20:14.458Z,99050.81
2023-01-19T00:25:14.280Z,99048.22
2023-01-19T00:30:13.488Z,99063.00
2023-01-19T00:35:12.269Z,99069.31
2023-01-19T00:40:11.813Z,99067.47
2023-01-19T00:45:13.267Z,99083.63
2023-01-19T00:50:13.291Z,99084.25
2023-01-19T00:55:14.603Z,99095.53
2023-01-19T01:00:16.255Z,99093.69
2023-01-19T01:05:15.440Z,99097.78
2023-01-19T01:10:20.228Z,99093.69
2023-01-19T01:15:19.734Z,99106.91
2023-01-19T01:20:24.309Z,99109.38
2023-01-19T01:25:24.956Z,99117.16
2023-01-19T01:30:23.880Z,99111.19
2023-01-19T01:35:22.668Z,99108.00
2023-01-19T01:40:21.516Z,99109.22
2023-01-19T01:45:31.028Z,99122.38
2023-01-19T01:50:32.672Z,99109.94
2023-01-19T01:55:34.879Z,99129.00
2023-01-19T02:00:53.841Z,99127.69
2023-01-19T02:05:57.766Z,99131.19
2023-01-19T02:11:17.098Z,99131.38
2023-01-19T02:16:17.190Z,99125.19
2023-01-19T02:21:52.165Z,99126.50
2023-01-19T02:26:51.594Z,99132.09
2023-01-19T02:31:51.033Z,99131.97
2023-01-19T02:37:06.599Z,99142.63
2023-01-19T02:42:27.239Z,99135.16
2023-01-19T02:47:26.200Z,99142.88
2023-01-19T02:52:25.826Z,99146.50
2023-01-19T02:57:48.086Z,99149.25
2023-01-19T03:03:12.054Z,99150.81
2023-01-19T03:08:16.590Z,99163.31
2023-01-19T03:13:18.040Z,99159.28
2023-01-19T03:18:21.342Z,99173.47
2023-01-19T03:23:23.453Z,99183.19
2023-01-19T03:28:25.197Z,99188.22
2023-01-19T03:33:28.657Z,99195.19
2023-01-19T03:38:31.384Z,99195.31
2023-01-19T03:43:31.834Z,99190.72
2023-01-19T03:48:31.355Z,99189.63
2023-01-19T03:53:30.094Z,99191.19
2023-01-19T03:58:29.187Z,99195.75
2023-01-19T04:03:28.294Z,99203.88
2023-01-19T04:08:27.171Z,99203.19
2023-01-19T04:13:28.658Z,99204.84
2023-01-19T04:18:33.827Z,99201.97
2023-01-19T04:23:33.956Z,99194.63
2023-01-19T04:28:34.930Z,99186.53
2023-01-19T04:33:34.301Z,99189.19
2023-01-19T04:38:33.006Z,99197.28
2023-01-19T04:43:31.777Z,99194.75
2023-01-19T04:48:30.745Z,99206.25
2023-01-19T04:53:29.595Z,99210.16
2023-01-19T04:58:28.428Z,99202.22
2023-01-19T05:03:27.261Z,99205.88
2023-01-19T05:08:26.235Z,99200.72
2023-01-19T05:13:25.266Z,99195.44
2023-01-19T05:18:24.255Z,99189.25
2023-01-19T05:23:23.203Z,99201.94
2023-01-19T05:28:22.195Z,99187.13
2023-01-19T05:33:22.570Z,99185.16
2023-01-19T05:38:34.309Z,99174.47
2023-01-19T05:43:33.971Z,99180.53
2023-01-19T05:48:32.825Z,99190.34
2023-01-19T05:53:31.905Z,99182.72
2023-01-19T05:58:31.180Z,99192.56
2023-01-19T06:03:30.418Z,99199.50
2023-01-19T06:08:29.793Z,99219.66
2023-01-19T06:13:28.509Z,99202.84
2023-01-19T06:18:28.362Z,99212.03
2023-01-19T06:23:32.415Z,99223.94
2023-01-19T06:28:31.550Z,99247.59
2023-01-19T06:33:30.291Z,99246.44
2023-01-19T06:38:29.235Z,99251.00
2023-01-19T06:43:28.257Z,99255.44
2023-01-19T06:48:27.337Z,99253.28
2023-01-19T06:53:28.057Z,99268.94
2023-01-19T06:58:27.745Z,99265.75
2023-01-19T07:03:26.630Z,99262.69
2023-01-19T07:08:25.507Z,99273.28
2023-01-19T07:13:24.538Z,99278.69
2023-01-19T07:18:23.360Z,99279.47
2023-01-19T07:23:22.199Z,99280.16
2023-01-19T07:28:21.294Z,99287.00
2023-01-19T07:33:22.286Z,99288.78
2023-01-19T07:38:21.469Z,99295.03
2023-01-19T07:43:20.669Z,99290.13
2023-01-19T07:48:19.668Z,99295.03
2023-01-19T07:53:18.688Z,99304.91
2023-01-19T07:58:17.622Z,99303.84
2023-01-19T08:03:17.724Z,99304.06
2023-01-19T08:08:16.499Z,99312.09
2023-01-19T08:13:15.335Z,99313.44
2023-01-19T08:18:15.858Z,99316.13
2023-01-19T08:23:14.682Z,99327.72
2023-01-19T08:28:16.643Z,99321.59
2023-01-19T08:33:15.460Z,99318.47
2023-01-19T08:38:14.940Z,99311.47
2023-01-19T08:43:16.350Z,99327.34
2023-01-19T08:48:17.230Z,99321.66
2023-01-19T08:53:17.023Z,99330.63
2023-01-19T08:58:16.713Z,99325.69
2023-01-19T09:03:15.623Z,99311.13
2023-01-19T09:08:15.547Z,99318.78
2023-01-19T09:13:15.282Z,99313.31
2023-01-19T09:18:18.087Z,99317.78
2023-01-19T09:23:20.295Z,99320.47
2023-01-19T09:28:19.381Z,99325.25
2023-01-19T09:33:19.516Z,99322.06
2023-01-19T09:38:20.203Z,99317.53
2023-01-19T09:43:42.780Z,99328.13
2023-01-19T09:49:16.068Z,99317.34
2023-01-19T09:54:36.601Z,99318.38
2023-01-19T09:59:36.652Z,99319.72
2023-01-19T10:04:43.723Z,99306.84
2023-01-19T10:09:48.577Z,99308.41
2023-01-19T10:15:07.058Z,99314.44
2023-01-19T10:20:18.069Z,99299.69
2023-01-19T10:28:25.433Z,99290.09
2023-01-19T10:33:24.506Z,99303.41
2023-01-19T10:38:23.546Z,99296.00
2023-01-19T10:43:35.012Z,99291.41
2023-01-19T10:48:42.113Z,99292.31
2023-01-19T10:53:53.578Z,99281.53
2023-01-19T10:58:52.680Z,99275.00
2023-01-19T11:03:53.523Z,99280.16
2023-01-19T11:08:53.956Z,99281.84
2023-01-19T11:14:10.156Z,99278.81
2023-01-19T11:19:20.108Z,99277.41
2023-01-19T11:24:20.280Z,99283.41
2023-01-19T11:29:25.712Z,99274.66
2023-01-19T11:34:32.161Z,99271.81
2023-01-19T11:39:45.021Z,99284.84
2023-01-19T11:44:52.970Z,99280.78
2023-01-19T11:50:16.070Z,99287.28
2023-01-19T11:55:27.068Z,99286.47
2023-01-19T12:00:46.908Z,99284.84
2023-01-19T12:05:50.143Z,99277.81
2023-01-19T12:10:51.987Z,99282.19
2023-01-19T12:16:00.394Z,99283.44
2023-01-19T12:20:59.215Z,99280.34
2023-01-19T12:26:46.868Z,99288.00
2023-01-19T12:31:45.939Z,99279.91
2023-01-19T12:36:44.967Z,99277.28
2023-01-19T12:41:45.501Z,99280.91
2023-01-19T12:46:50.349Z,99270.31
2023-01-19T12:51:51.119Z,99271.00
2023-01-19T12:56:56.008Z,99270.00
2023-01-19T13:02:24.335Z,99261.47
2023-01-19T13:07:22.985Z,99254.84
2023-01-19T13:12:22.779Z,99256.00
2023-01-19T13:17:21.813Z,99257.44
2023-01-19T13:22:49.780Z,99253.78
2023-01-19T13:27:49.993Z,99255.91
2023-01-19T13:32:48.946Z,99252.81
2023-01-19T13:37:49.129Z,99252.03
2023-01-19T13:42:49.454Z,99250.63
2023-01-19T13:47:49.978Z,99234.13
2023-01-19T13:52:51.404Z,99249.84
2023-01-19T13:57:51.715Z,99250.19
2023-01-19T14:02:59.063Z,99248.03
2023-01-19T14:08:13.340Z,99251.38
2023-01-19T14:13:30.031Z,99260.75
2023-01-19T14:18:31.204Z,99266.22
2023-01-19T14:24:05.554Z,99266.75
2023-01-19T14:29:28.992Z,99263.78
2023-01-19T14:34:41.338Z,99268.19
2023-01-19T14:39:45.517Z,99268.75
2023-01-19T14:44:49.165Z,99271.19
2023-01-19T14:49:48.081Z,99275.03
2023-01-19T14:54:48.360Z,99276.69
2023-01-19T14:59:49.879Z,99278.56
2023-01-19T15:04:48.827Z,99277.75
2023-01-19T15:09:48.490Z,99284.03
2023-01-19T15:14:47.617Z,99288.19
2023-01-19T15:19:46.519Z,99284.44
2023-01-19T15:24:48.719Z,99299.13
2023-01-19T15:29:47.701Z,99315.16
2023-01-19T15:34:46.748Z,99305.59
2023-01-19T15:39:45.607Z,99313.88
2023-01-19T15:44:45.390Z,99322.19
2023-01-19T15:49:44.254Z,99328.59
2023-01-19T15:54:43.179Z,99339.28
2023-01-19T15:59:42.203Z,99342.56
2023-01-19T16:04:41.285Z,99339.59
2023-01-19T16:09:40.499Z,99343.50
2023-01-19T16:14:39.258Z,99343.78
2023-01-19T16:19:58.789Z,99343.56
2023-01-19T16:24:57.711Z,99352.72
2023-01-19T16:29:57.141Z,99356.03
2023-01-19T16:34:55.970Z,99360.81
2023-01-19T16:39:54.907Z,99363.31
2023-01-19T16:44:54.634Z,99372.03
2023-01-19T16:49:53.411Z,99378.91
2023-01-19T16:54:54.728Z,99390.56
2023-01-19T16:59:53.599Z,99387.91
2023-01-19T17:04:52.374Z,99382.97
2023-01-19T17:09:51.209Z,99384.84
2023-01-19T17:14:49.951Z,99386.25
2023-01-19T17:19:48.751Z,99397.03
2023-01-19T17:24:47.600Z,99384.38
2023-01-19T17:29:48.629Z,99400.78
2023-01-19T17:34:51.384Z,99400.41
2023-01-19T17:39:50.214Z,99400.22
2023-01-19T17:44:49.025Z,99408.88
2023-01-19T17:49:47.903Z,99412.66
2023-01-19T17:54:46.774Z,99414.44
2023-01-19T17:59:47.285Z,99426.88
2023-01-19T18:04:46.122Z,99424.00
2023-01-19T18:09:44.975Z,99420.56
2023-01-19T18:14:43.800Z,99421.06
2023-01-19T18:19:42.595Z,99430.56
2023-01-19T18:24:41.367Z,99428.28
2023-01-19T18:29:40.338Z,99423.34
2023-01-19T18:34:39.164Z,99426.81
2023-01-19T18:39:37.901Z,99433.53
2023-01-19T18:44:36.662Z,99427.00
2023-01-19T18:49:35.364Z,99428.28
2023-01-19T18:54:34.109Z,99427.69
2023-01-19T18:59:32.821Z,99435.03
2023-01-19T19:04:31.563Z,99448.97
2023-01-19T19:09:30.527Z,99453.47
2023-01-19T19:14:29.386Z,99449.22
2023-01-19T19:19:28.137Z,99454.34
2023-01-19T19:24:26.993Z,99460.66
2023-01-19T19:29:25.955Z,99455.94
2023-01-19T19:34:25.125Z,99457.69
2023-01-19T19:39:23.815Z,99458.59
2023-01-19T19:44:22.581Z,99459.81
2023-01-19T19:49:21.507Z,99460.63
2023-01-19T19:54:20.318Z,99468.84
2023-01-19T19:59:19.400Z,99476.22
2023-01-19T20:04:20.364Z,99476.44
2023-01-19T20:09:19.251Z,99481.59
2023-01-19T20:14:18.167Z,99486.34
2023-01-19T20:19:18.237Z,99487.59
2023-01-19T20:24:19.358Z,99487.13
2023-01-19T20:29:19.450Z,99495.38
2023-01-19T20:34:20.524Z,99498.81
2023-01-19T20:39:20.924Z,99505.28
2023-01-19T20:44:23.656Z,99502.78
2023-01-19T20:49:22.830Z,99507.91
2023-01-19T20:54:24.656Z,99503.56
2023-01-19T20:59:23.722Z,99511.56
2023-01-19T21:04:22.629Z,99506.81
2023-01-19T21:09:22.830Z,99522.03
2023-01-19T21:14:21.667Z,99520.00
2023-01-19T21:19:20.408Z,99530.25
2023-01-19T21:24:19.198Z,99536.00
2023-01-19T21:29:18.055Z,99536.56
2023-01-19T21:34:17.565Z,99547.00
2023-01-19T21:39:17.440Z,99542.72
2023-01-19T21:44:16.673Z,99547.91
2023-01-19T21:49:20.221Z,99549.56
2023-01-19T21:54:19.035Z,99555.75
2023-01-19T21:59:20.219Z,99554.69
2023-01-19T22:04:19.180Z,99566.03
2023-01-19T22:09:17.952Z,99568.88
2023-01-19T22:14:16.852Z,99575.66
2023-01-19T22:19:15.666Z,99563.13
2023-01-19T22:24:14.627Z,99568.88
2023-01-19T22:29:13.412Z,99575.47
2023-01-19T22:34:13.522Z,99579.75
2023-01-19T22:39:13.612Z,99579.78
2023-01-19T22:44:18.210Z,99578.09
2023-01-19T22:49:18.137Z,99577.91
2023-01-19T22:54:16.918Z,99568.66
2023-01-19T22:59:15.734Z,99571.34
2023-01-19T23:04:16.069Z,99577.09
2023-01-19T23:09:14.974Z,99574.84
2023-01-19T23:14:16.866Z,99575.84
2023-01-19T23:19:17.293Z,99584.88
2023-01-19T23:24:16.135Z,99576.88
2023-01-19T23:29:15.512Z,99578.41
2023-01-19T23:34:15.209Z,99582.34
2023-01-19T23:39:18.044Z,99573.75
2023-01-19T23:44:17.647Z,99569.44
2023-01-19T23:49:17.071Z,99565.53
2023-01-19T23:54:15.800Z,99570.91
2023-01-19T23:59:15.882Z,99576.00
